notre code QR

Villámtérkép további részletek blitzortung!


Csapadékradar további részletek rain snow radar


További állomásunk adatai:

Template documentation
and downloads

And another site

Mobil nézet





No particular awareness of the weather is required.    There are no Weather-warnings

Közeli METAR jelentések

   
LHBP - Budapest
Frissítve: 15-08-2020 00:30
Derült  
Derült  
   Szél: É 1.9 km/h
Szél: É 1.9 km/h
Hőmérséklet: 17°C
Harmatpont: 16°C
Páratartalom: 94%
Légnyomás: 1013 hPa
Látótávolság: More than 10 km
Felhő fajták: Derült
LHBP 142230Z 36001KT CAVOK 17/16 Q1013 NOSIG
LHKE - Kecskemét
Frissítve: 15-08-2020 00:15
Derült  
Derült  
   Szél: Szélcsend
Szél: Szélcsend
Hőmérséklet: 18°C
Harmatpont: 18°C
Páratartalom: 100%
Légnyomás: 1012 hPa
Látótávolság: More than 10 km
Felhő fajták: Derült
LHKE 142215Z 00000KT CAVOK 18/18 Q1012 R12/01//95 NOSIG RMK BLU
LHPP - Pécs
Frissítve: 14-08-2020 18:45
NOT Current
Kissé felhős  
Kissé felhős  
   Szél: KDK 11.1 km/h
Szél: KDK 11.1 km/h
Hőmérséklet: 27°C
Heat Index: 28°C
Harmatpont: 20°C
Páratartalom: 66%
Légnyomás: 1012 hPa
Felhők: Kissé felhős
Látótávolság: More than 10 km
Felhő fajták: Kissé felhős 4000 ft
LHPP 141645Z 11006KT 9999 FEW040 27/20 Q1012
LHSN - Szolnok
Frissítve: 15-08-2020 00:15
Derült  
Derült  
   Szél: DDNY 3.7 km/h
Szél: DDNY 3.7 km/h
Hőmérséklet: 19°C
Harmatpont: 18°C
Páratartalom: 94%
Légnyomás: 1012 hPa
Látótávolság: More than 10 km
Felhő fajták: Derült
LHSN 142215Z 21002KT CAVOK 19/18 Q1012 NOSIG RMK BLU
LHDC - Debrecen
Frissítve: 15-08-2020 00:15
Közepesen felhős  
Közepesen felhős  
   Szél: D 5.6 km/h
Szél: D 5.6 km/h
Hőmérséklet: 19°C
Harmatpont: 17°C
Páratartalom: 88%
Légnyomás: 1012 hPa
Felhők: Közepesen felhős
Látótávolság: 9 km
Felhő fajták: Közepesen felhős
LHDC 142215Z AUTO 19003KT 9000 NSC 19/17 Q1012
LHPA - Pápa
Frissítve: 15-08-2020 00:15
Derült  
Derült  
   Szél: D 7.4 km/h
Szél: D 7.4 km/h
Hőmérséklet: 19°C
Harmatpont: 18°C
Páratartalom: 94%
Légnyomás: 1013 hPa
Látótávolság: More than 10 km
Felhő fajták: Derült
LHPA 142215Z 17004KT CAVOK 19/18 Q1013 NOSIG RMK BLU

Eredeti script  Saratoga-weather.org Adapted for the template by  Weerstation Leuven

Készülékünk:

Weather-program
Meteobridge

Weather-server
My Computer

Meteobridge

My Computer